createdAt,value
2018-03-31T00:00:01.420Z,82.00
2018-03-31T00:02:27.782Z,81.90
2018-03-31T00:04:54.175Z,81.40
2018-03-31T00:07:20.561Z,81.30
2018-03-31T00:09:46.904Z,81.20
2018-03-31T00:12:13.284Z,81.50
2018-03-31T00:14:39.632Z,81.80
2018-03-31T00:17:06.005Z,81.90
2018-03-31T00:19:32.403Z,81.90
2018-03-31T00:21:58.789Z,81.50
2018-03-31T00:24:25.141Z,81.20
2018-03-31T00:26:51.905Z,80.30
2018-03-31T00:29:18.672Z,80.20
2018-03-31T00:31:45.410Z,80.20
2018-03-31T00:34:12.182Z,79.80
2018-03-31T00:36:38.925Z,79.70
2018-03-31T00:39:05.705Z,79.40
2018-03-31T00:41:32.081Z,79.40
2018-03-31T00:43:58.438Z,79.20
2018-03-31T00:46:24.814Z,79.80
2018-03-31T00:48:51.578Z,79.80
2018-03-31T00:51:18.342Z,80.30
2018-03-31T00:53:44.707Z,80.30
2018-03-31T00:56:11.069Z,80.20
2018-03-31T00:58:37.424Z,80.20
2018-03-31T01:01:03.817Z,79.90
2018-03-31T01:03:30.568Z,80.10
2018-03-31T01:05:57.336Z,80.30
2018-03-31T01:08:23.701Z,80.30
2018-03-31T01:10:50.115Z,80.20
2018-03-31T01:13:16.428Z,79.90
2018-03-31T01:15:42.801Z,79.60
2018-03-31T01:18:09.553Z,80.50
2018-03-31T01:20:36.429Z,80.40
2018-03-31T01:23:03.189Z,80.40
2018-03-31T01:25:29.542Z,80.40
2018-03-31T01:27:55.897Z,80.60
2018-03-31T01:30:22.274Z,80.60
2018-03-31T01:32:48.621Z,80.50
2018-03-31T01:35:14.994Z,80.40
2018-03-31T01:37:41.765Z,80.20
2018-03-31T01:40:08.126Z,80.20
2018-03-31T01:42:34.492Z,80.10
2018-03-31T01:45:00.860Z,80.10
2018-03-31T01:47:27.230Z,79.90
2018-03-31T01:49:53.988Z,79.70
2018-03-31T01:52:20.348Z,79.70
2018-03-31T01:54:46.728Z,80.10
2018-03-31T01:57:13.076Z,79.80
2018-03-31T01:59:39.499Z,79.90
2018-03-31T02:02:05.855Z,80.20
2018-03-31T02:04:32.631Z,80.40
2018-03-31T02:06:58.996Z,80.40
2018-03-31T02:09:25.379Z,80.80
2018-03-31T02:11:51.759Z,80.90
2018-03-31T02:14:18.134Z,80.60
2018-03-31T02:16:44.498Z,80.80
2018-03-31T02:19:10.885Z,80.90
2018-03-31T02:21:37.639Z,80.70
2018-03-31T02:24:04.416Z,81.40
2018-03-31T02:26:30.794Z,81.40
2018-03-31T02:28:57.174Z,81.70
2018-03-31T02:31:23.932Z,82.20
2018-03-31T02:33:50.715Z,82.00
2018-03-31T02:36:17.116Z,82.00
2018-03-31T02:38:43.490Z,81.60
2018-03-31T02:41:10.287Z,81.30
2018-03-31T02:43:36.672Z,81.30
2018-03-31T02:46:03.426Z,81.10
2018-03-31T02:48:30.214Z,81.40
2018-03-31T02:50:56.589Z,81.40
2018-03-31T02:53:22.987Z,81.40
2018-03-31T02:55:49.767Z,81.50
2018-03-31T02:58:16.126Z,81.50
2018-03-31T03:00:42.517Z,81.50
2018-03-31T03:03:08.930Z,81.30
2018-03-31T03:05:35.294Z,81.10
2018-03-31T03:08:01.707Z,80.90
2018-03-31T03:10:28.106Z,80.50
2018-03-31T03:12:54.886Z,81.10
2018-03-31T03:15:21.258Z,81.10
2018-03-31T03:17:47.646Z,81.20
2018-03-31T03:20:14.006Z,81.00
2018-03-31T03:22:40.813Z,81.60
2018-03-31T03:25:07.176Z,81.60
2018-03-31T03:27:33.568Z,81.60
2018-03-31T03:29:59.937Z,81.80
2018-03-31T03:32:26.317Z,81.50
2018-03-31T03:34:52.693Z,81.30
2018-03-31T03:37:19.060Z,81.10
2018-03-31T03:39:45.441Z,81.40
2018-03-31T03:42:11.803Z,81.60
2018-03-31T03:44:38.206Z,81.70
2018-03-31T03:47:04.582Z,81.50
2018-03-31T03:49:30.950Z,81.40
2018-03-31T03:51:57.331Z,81.30
2018-03-31T03:54:23.726Z,80.80
2018-03-31T03:56:50.073Z,80.90
2018-03-31T03:59:16.459Z,80.90
2018-03-31T04:01:42.845Z,81.30
2018-03-31T04:04:09.262Z,80.90
2018-03-31T04:06:35.624Z,81.00
2018-03-31T04:09:02.019Z,81.10
2018-03-31T04:11:28.776Z,81.80
2018-03-31T04:13:55.561Z,82.30
2018-03-31T04:16:21.920Z,82.30
2018-03-31T04:18:48.281Z,82.20
2018-03-31T04:21:14.689Z,82.10
2018-03-31T04:23:41.064Z,82.10
2018-03-31T04:26:07.443Z,82.10
2018-03-31T04:28:33.821Z,81.80
2018-03-31T04:31:00.189Z,81.60
2018-03-31T04:33:26.579Z,81.60
2018-03-31T04:35:52.936Z,81.80
2018-03-31T04:38:19.714Z,81.10
2018-03-31T04:40:46.088Z,81.10
2018-03-31T04:43:12.496Z,81.60
2018-03-31T04:45:39.404Z,81.60
2018-03-31T04:48:05.840Z,81.60
2018-03-31T04:50:32.174Z,81.80
2018-03-31T04:52:58.573Z,81.60
2018-03-31T04:55:25.360Z,81.00
2018-03-31T04:57:51.743Z,81.00
2018-03-31T05:00:18.139Z,81.10
2018-03-31T05:02:44.937Z,82.10
2018-03-31T05:05:11.320Z,82.10
2018-03-31T05:07:38.100Z,82.30
2018-03-31T05:10:04.488Z,82.30
2018-03-31T05:12:30.879Z,81.60
2018-03-31T05:14:57.644Z,81.80
2018-03-31T05:17:24.090Z,81.80
2018-03-31T05:19:50.454Z,81.60
2018-03-31T05:22:16.845Z,81.90
2018-03-31T05:24:43.254Z,81.60
2018-03-31T05:27:10.034Z,81.30
2018-03-31T05:29:36.421Z,81.30
2018-03-31T05:32:03.183Z,81.50
2018-03-31T05:34:29.951Z,81.30
2018-03-31T05:36:56.313Z,81.30
2018-03-31T05:39:22.711Z,81.30
2018-03-31T05:41:49.080Z,81.50
2018-03-31T05:44:15.870Z,82.10
2018-03-31T05:46:42.228Z,82.10
2018-03-31T05:49:08.646Z,82.10
2018-03-31T05:51:35.017Z,81.80
2018-03-31T05:54:01.410Z,81.40
2018-03-31T05:56:28.208Z,81.40
2018-03-31T05:58:54.570Z,81.40
2018-03-31T06:01:20.953Z,82.00
2018-03-31T06:03:47.316Z,82.20
2018-03-31T06:06:13.718Z,81.80
2018-03-31T06:08:40.117Z,81.80
2018-03-31T06:11:06.480Z,81.30
2018-03-31T06:13:32.877Z,81.20
2018-03-31T06:15:59.649Z,81.50
2018-03-31T06:18:26.427Z,81.90
2018-03-31T06:20:52.804Z,81.90
2018-03-31T06:23:19.168Z,82.30
2018-03-31T06:25:45.666Z,80.90
2018-03-31T06:28:12.038Z,80.10
2018-03-31T06:30:38.412Z,80.30
2018-03-31T06:33:04.766Z,80.10
2018-03-31T06:35:31.562Z,80.20
2018-03-31T06:37:57.995Z,80.10
2018-03-31T06:40:24.356Z,80.20
2018-03-31T06:42:50.740Z,80.00
2018-03-31T06:45:17.173Z,79.60
2018-03-31T06:47:43.575Z,79.20
2018-03-31T06:50:09.985Z,79.20
2018-03-31T06:52:36.350Z,78.50
2018-03-31T06:55:03.136Z,79.50
2018-03-31T06:57:29.585Z,79.50
2018-03-31T06:59:55.952Z,79.50
2018-03-31T07:02:22.325Z,79.90
2018-03-31T07:04:48.741Z,79.70
2018-03-31T07:07:15.137Z,80.00
2018-03-31T07:09:41.940Z,79.30
2018-03-31T07:12:08.329Z,79.30
2018-03-31T07:14:35.127Z,78.80
2018-03-31T07:17:01.532Z,78.80
2018-03-31T07:19:27.863Z,78.60
2018-03-31T07:21:54.227Z,78.00
2018-03-31T07:24:20.597Z,78.30
2018-03-31T07:26:46.978Z,77.80
2018-03-31T07:29:13.408Z,78.30
2018-03-31T07:31:39.813Z,78.60
2018-03-31T07:34:06.580Z,78.30
2018-03-31T07:36:33.363Z,77.20
2018-03-31T07:38:59.725Z,77.20
2018-03-31T07:41:26.126Z,76.30
2018-03-31T07:43:52.919Z,77.90
2018-03-31T07:46:19.284Z,77.90
2018-03-31T07:48:45.657Z,78.60
2018-03-31T07:51:12.063Z,78.00
2018-03-31T07:53:38.478Z,77.20
2018-03-31T07:56:04.861Z,76.00
2018-03-31T07:58:31.232Z,75.20
2018-03-31T08:00:57.613Z,74.30
2018-03-31T08:03:24.381Z,74.60
2018-03-31T08:05:50.747Z,74.70
2018-03-31T08:08:17.166Z,74.60
2018-03-31T08:10:43.937Z,71.20
2018-03-31T08:13:10.321Z,71.20
2018-03-31T08:15:36.772Z,71.90
2018-03-31T08:18:03.133Z,72.20
2018-03-31T08:20:29.522Z,73.20
2018-03-31T08:22:55.895Z,73.90
2018-03-31T08:25:22.257Z,73.90
2018-03-31T08:27:48.638Z,71.80
2018-03-31T08:30:15.025Z,71.70
2018-03-31T08:32:41.410Z,72.10
2018-03-31T08:35:08.198Z,68.70
2018-03-31T08:37:34.594Z,68.70
2018-03-31T08:40:00.961Z,67.00
2018-03-31T08:42:27.714Z,67.60
2018-03-31T08:44:54.508Z,68.10
2018-03-31T08:47:20.887Z,68.10
2018-03-31T08:49:47.261Z,67.10
2018-03-31T08:52:14.063Z,66.80
2018-03-31T08:54:40.457Z,66.80
2018-03-31T08:57:07.216Z,66.00
2018-03-31T08:59:34.002Z,65.30
2018-03-31T09:02:00.361Z,65.30
2018-03-31T09:04:26.746Z,63.90
2018-03-31T09:06:53.138Z,63.30
2018-03-31T09:09:19.948Z,62.60
2018-03-31T09:11:46.254Z,62.60
2018-03-31T09:14:12.611Z,62.90
2018-03-31T09:16:39.030Z,62.00
2018-03-31T09:19:05.781Z,61.40
2018-03-31T09:21:32.124Z,61.40
2018-03-31T09:23:58.511Z,58.80
2018-03-31T09:26:24.881Z,60.10
2018-03-31T09:28:51.260Z,59.90
2018-03-31T09:31:17.710Z,59.80
2018-03-31T09:33:44.456Z,59.40
2018-03-31T09:36:10.881Z,59.40
2018-03-31T09:38:37.625Z,58.30
2018-03-31T09:41:04.116Z,58.30
2018-03-31T09:43:30.568Z,59.80
2018-03-31T09:45:57.330Z,57.70
2018-03-31T09:48:23.704Z,57.70
2018-03-31T09:50:50.075Z,57.00
2018-03-31T09:53:16.459Z,56.40
2018-03-31T09:55:42.851Z,55.40
2018-03-31T09:58:09.275Z,58.50
2018-03-31T10:00:35.799Z,58.70
2018-03-31T10:03:02.153Z,55.50
2018-03-31T10:05:28.517Z,55.90
2018-03-31T10:07:54.896Z,56.30
2018-03-31T10:10:21.285Z,54.00
2018-03-31T10:12:47.645Z,54.40
2018-03-31T10:15:14.039Z,54.80
2018-03-31T10:17:40.446Z,55.40
2018-03-31T10:20:06.863Z,55.70
2018-03-31T10:22:33.709Z,55.50
2018-03-31T10:25:00.022Z,55.50
2018-03-31T10:27:26.397Z,55.00
2018-03-31T10:29:53.205Z,53.80
2018-03-31T10:32:19.653Z,53.80
2018-03-31T10:34:46.433Z,54.00
2018-03-31T10:37:13.202Z,54.10
2018-03-31T10:39:39.977Z,54.20
2018-03-31T10:42:06.338Z,54.20
2018-03-31T10:44:32.723Z,53.10
2018-03-31T10:46:59.117Z,52.90
2018-03-31T10:49:25.497Z,53.30
2018-03-31T10:51:51.872Z,53.80
2018-03-31T10:54:18.248Z,53.80
2018-03-31T10:56:45.010Z,52.90
2018-03-31T10:59:11.386Z,52.80
2018-03-31T11:01:37.737Z,51.30
2018-03-31T11:04:04.113Z,52.10
2018-03-31T11:06:30.901Z,53.20
2018-03-31T11:08:57.272Z,53.20
2018-03-31T11:11:23.630Z,52.70
2018-03-31T11:13:50.176Z,52.10
2018-03-31T11:16:16.537Z,53.20
2018-03-31T11:18:42.946Z,53.00
2018-03-31T11:21:09.309Z,53.40
2018-03-31T11:23:35.706Z,52.00
2018-03-31T11:26:02.456Z,51.50
2018-03-31T11:28:29.244Z,51.40
2018-03-31T11:30:55.623Z,51.30
2018-03-31T11:33:21.979Z,51.90
2018-03-31T11:35:48.400Z,51.60
2018-03-31T11:38:14.776Z,51.50
2018-03-31T11:40:41.165Z,51.40
2018-03-31T11:43:07.548Z,51.60
2018-03-31T11:45:33.919Z,52.20
2018-03-31T11:48:00.297Z,51.80
2018-03-31T11:50:26.684Z,52.40
2018-03-31T11:52:53.087Z,52.60
2018-03-31T11:55:19.487Z,52.40
2018-03-31T11:57:45.916Z,53.00
2018-03-31T12:00:12.302Z,51.50
2018-03-31T12:02:39.111Z,51.90
2018-03-31T12:05:05.473Z,51.90
2018-03-31T12:07:31.854Z,52.10
2018-03-31T12:09:58.628Z,52.90
2018-03-31T12:12:24.995Z,52.90
2018-03-31T12:14:51.406Z,52.60
2018-03-31T12:17:18.324Z,52.00
2018-03-31T12:19:44.682Z,51.90
2018-03-31T12:22:11.098Z,52.00
2018-03-31T12:24:37.450Z,51.50
2018-03-31T12:27:03.831Z,51.20
2018-03-31T12:29:30.216Z,51.60
2018-03-31T12:31:56.608Z,51.70
2018-03-31T12:34:23.003Z,51.20
2018-03-31T12:36:49.380Z,51.20
2018-03-31T12:39:15.777Z,52.30
2018-03-31T12:41:42.145Z,51.20
2018-03-31T12:44:08.534Z,52.10
2018-03-31T12:46:34.887Z,51.50
2018-03-31T12:49:01.263Z,52.20
2018-03-31T12:51:27.629Z,52.60
2018-03-31T12:53:54.061Z,51.00
2018-03-31T12:56:20.502Z,52.10
2018-03-31T12:58:46.876Z,51.50
2018-03-31T13:01:13.236Z,52.30
2018-03-31T13:03:39.622Z,51.80
2018-03-31T13:06:06.397Z,51.70
2018-03-31T13:08:32.759Z,51.70
2018-03-31T13:10:59.126Z,52.10
2018-03-31T13:13:25.493Z,52.60
2018-03-31T13:15:51.872Z,51.50
2018-03-31T13:18:18.636Z,51.60
2018-03-31T13:20:45.013Z,51.60
2018-03-31T13:23:11.370Z,51.90
2018-03-31T13:25:37.746Z,52.20
2018-03-31T13:28:04.534Z,49.70
2018-03-31T13:30:30.975Z,49.70
2018-03-31T13:32:57.728Z,50.00
2018-03-31T13:35:24.113Z,50.00
2018-03-31T13:37:50.509Z,50.60
2018-03-31T13:40:17.273Z,49.50
2018-03-31T13:42:43.691Z,49.50
2018-03-31T13:45:10.048Z,50.10
2018-03-31T13:47:36.806Z,50.00
2018-03-31T13:50:03.596Z,50.40
2018-03-31T13:52:29.954Z,50.40
2018-03-31T13:54:56.332Z,49.90
2018-03-31T13:57:22.730Z,50.20
2018-03-31T13:59:49.117Z,50.20
2018-03-31T14:02:15.508Z,50.30
2018-03-31T14:04:41.859Z,50.60
2018-03-31T14:07:08.248Z,50.60
2018-03-31T14:09:34.602Z,50.10
2018-03-31T14:12:00.983Z,50.50
2018-03-31T14:14:27.368Z,50.90
2018-03-31T14:16:53.746Z,50.90
2018-03-31T14:19:20.116Z,51.60
2018-03-31T14:21:46.592Z,51.40
2018-03-31T14:24:12.949Z,52.00
2018-03-31T14:26:39.347Z,51.90
2018-03-31T14:29:06.108Z,51.40
2018-03-31T14:31:32.481Z,51.40
2018-03-31T14:33:58.836Z,51.90
2018-03-31T14:36:25.256Z,52.00
2018-03-31T14:38:51.647Z,51.70
2018-03-31T14:41:18.022Z,51.50
2018-03-31T14:43:44.818Z,52.00
2018-03-31T14:46:11.195Z,52.00
2018-03-31T14:48:37.568Z,51.90
2018-03-31T14:51:04.330Z,51.90
2018-03-31T14:53:31.103Z,51.70
2018-03-31T14:55:57.456Z,51.70
2018-03-31T14:58:23.877Z,51.50
2018-03-31T15:00:50.248Z,51.40
2018-03-31T15:03:16.629Z,52.30
2018-03-31T15:05:42.986Z,51.20
2018-03-31T15:08:09.346Z,51.20
2018-03-31T15:10:36.184Z,50.80
2018-03-31T15:13:02.485Z,50.80
2018-03-31T15:15:29.649Z,50.40
2018-03-31T15:17:56.074Z,50.60
2018-03-31T15:20:22.502Z,51.20
2018-03-31T15:22:48.889Z,50.60
2018-03-31T15:25:15.253Z,51.00
2018-03-31T15:27:41.623Z,51.50
2018-03-31T15:30:08.003Z,51.40
2018-03-31T15:32:34.460Z,51.40
2018-03-31T15:35:01.204Z,51.30
2018-03-31T15:37:27.590Z,51.30
2018-03-31T15:39:53.964Z,51.00
2018-03-31T15:42:20.358Z,51.40
2018-03-31T15:44:46.725Z,51.50
2018-03-31T15:47:13.097Z,51.40
2018-03-31T15:49:39.467Z,51.00
2018-03-31T15:52:06.240Z,50.40
2018-03-31T15:54:32.617Z,50.40
2018-03-31T15:56:58.998Z,50.20
2018-03-31T15:59:25.354Z,50.20
2018-03-31T16:01:51.744Z,50.90
2018-03-31T16:04:18.105Z,51.20
2018-03-31T16:06:44.492Z,51.10
2018-03-31T16:09:11.278Z,50.70
2018-03-31T16:11:37.639Z,50.70
2018-03-31T16:14:03.998Z,50.80
2018-03-31T16:16:30.370Z,51.70
2018-03-31T16:18:57.132Z,51.10
2018-03-31T16:21:23.501Z,51.20
2018-03-31T16:23:49.874Z,51.50
2018-03-31T16:26:16.329Z,51.50
2018-03-31T16:28:42.814Z,51.50
2018-03-31T16:31:09.188Z,51.40
2018-03-31T16:33:35.578Z,50.70
2018-03-31T16:36:01.947Z,50.00
2018-03-31T16:38:28.305Z,48.50
2018-03-31T16:40:55.128Z,49.70
2018-03-31T16:43:21.538Z,49.70
2018-03-31T16:45:47.922Z,49.90
2018-03-31T16:48:14.284Z,49.50
2018-03-31T16:50:40.657Z,47.40
2018-03-31T16:53:07.116Z,47.70
2018-03-31T16:55:33.865Z,47.50
2018-03-31T16:58:00.225Z,47.50
2018-03-31T17:00:26.607Z,46.90
2018-03-31T17:02:53.001Z,46.60
2018-03-31T17:05:19.433Z,47.40
2018-03-31T17:07:46.194Z,49.90
2018-03-31T17:10:12.950Z,50.50
2018-03-31T17:12:39.322Z,50.50
2018-03-31T17:15:05.685Z,50.50
2018-03-31T17:17:32.070Z,50.40
2018-03-31T17:19:58.840Z,51.20
2018-03-31T17:22:25.230Z,51.20
2018-03-31T17:24:51.629Z,52.40
2018-03-31T17:27:18.406Z,53.90
2018-03-31T17:29:44.820Z,53.90
2018-03-31T17:32:11.702Z,53.60
2018-03-31T17:34:39.272Z,53.60
2018-03-31T17:37:05.888Z,53.80
2018-03-31T17:39:32.274Z,53.50
2018-03-31T17:41:58.633Z,53.90
2018-03-31T17:44:25.026Z,54.10
2018-03-31T17:46:51.378Z,54.30
2018-03-31T17:49:18.178Z,54.50
2018-03-31T17:51:44.537Z,54.50
2018-03-31T17:54:10.912Z,54.60
2018-03-31T17:56:37.320Z,54.80
2018-03-31T17:59:03.700Z,54.80
2018-03-31T18:01:30.108Z,54.80
2018-03-31T18:03:56.524Z,54.80
2018-03-31T18:06:23.286Z,55.40
2018-03-31T18:08:50.105Z,55.40
2018-03-31T18:11:16.489Z,55.40
2018-03-31T18:13:42.869Z,55.70
2018-03-31T18:16:09.343Z,55.90
2018-03-31T18:18:35.704Z,56.00
2018-03-31T18:21:02.084Z,56.10
2018-03-31T18:23:28.844Z,56.30
2018-03-31T18:25:55.198Z,56.30
2018-03-31T18:28:21.633Z,57.00
2018-03-31T18:30:48.405Z,57.80
2018-03-31T18:33:14.786Z,57.80
2018-03-31T18:35:41.153Z,58.10
2018-03-31T18:38:07.956Z,58.40
2018-03-31T18:40:34.326Z,58.40
2018-03-31T18:43:00.683Z,58.60
2018-03-31T18:45:27.047Z,58.40
2018-03-31T18:47:53.834Z,58.50
2018-03-31T18:50:20.198Z,58.50
2018-03-31T18:52:46.551Z,58.50
2018-03-31T18:55:12.932Z,58.60
2018-03-31T18:57:39.813Z,58.60
2018-03-31T19:00:06.554Z,58.50
2018-03-31T19:02:33.349Z,58.40
2018-03-31T19:05:00.094Z,58.60
2018-03-31T19:07:26.444Z,58.60
2018-03-31T19:09:52.979Z,58.50
2018-03-31T19:12:19.418Z,58.50
2018-03-31T19:14:45.786Z,58.40
2018-03-31T19:17:12.216Z,57.40
2018-03-31T19:19:38.638Z,57.50
2018-03-31T19:22:05.417Z,57.70
2018-03-31T19:24:31.774Z,57.70
2018-03-31T19:26:58.156Z,57.60
2018-03-31T19:29:25.450Z,57.60
2018-03-31T19:31:52.214Z,57.80
2018-03-31T19:34:19.201Z,57.70
2018-03-31T19:36:45.476Z,57.70
2018-03-31T19:39:11.848Z,57.60
2018-03-31T19:41:38.649Z,57.40
2018-03-31T19:44:05.040Z,57.40
2018-03-31T19:46:31.385Z,57.60
2018-03-31T19:48:57.799Z,57.40
2018-03-31T19:51:24.189Z,57.60
2018-03-31T19:53:50.971Z,57.90
2018-03-31T19:56:17.742Z,58.20
2018-03-31T19:58:44.098Z,58.20
2018-03-31T20:01:10.465Z,58.50
2018-03-31T20:03:36.878Z,58.80
2018-03-31T20:06:03.225Z,58.80
2018-03-31T20:08:29.604Z,59.30
2018-03-31T20:10:55.972Z,59.40
2018-03-31T20:13:22.366Z,59.90
2018-03-31T20:15:48.816Z,60.00
2018-03-31T20:18:15.205Z,59.80
2018-03-31T20:20:41.756Z,60.40
2018-03-31T20:23:08.141Z,60.30
2018-03-31T20:25:34.545Z,60.40
2018-03-31T20:28:01.112Z,61.00
2018-03-31T20:30:27.890Z,61.60
2018-03-31T20:32:54.267Z,61.60
2018-03-31T20:35:20.652Z,61.80
2018-03-31T20:37:47.558Z,61.10
2018-03-31T20:40:14.256Z,61.70
2018-03-31T20:42:40.631Z,61.70
2018-03-31T20:45:07.009Z,61.10
2018-03-31T20:50:10.973Z,61.70
2018-03-31T20:52:37.499Z,61.80
2018-03-31T20:55:03.841Z,62.10
2018-03-31T20:57:30.196Z,62.10
2018-03-31T20:59:56.565Z,62.90
2018-03-31T21:02:22.959Z,61.80
2018-03-31T21:04:49.927Z,61.50
2018-03-31T21:07:16.294Z,61.50
2018-03-31T21:09:42.669Z,62.00
2018-03-31T21:12:09.264Z,62.30
2018-03-31T21:14:35.644Z,62.10
2018-03-31T21:17:01.995Z,62.30
2018-03-31T21:19:28.361Z,62.10
2018-03-31T21:21:54.727Z,62.00
2018-03-31T21:24:21.599Z,62.20
2018-03-31T21:26:48.566Z,62.60
2018-03-31T21:29:14.999Z,62.60
2018-03-31T21:31:41.338Z,62.70
2018-03-31T21:34:08.081Z,62.50
2018-03-31T21:36:34.845Z,62.50
2018-03-31T21:39:01.614Z,62.60
2018-03-31T21:41:27.994Z,62.60
2018-03-31T21:43:54.369Z,62.70
2018-03-31T21:46:20.748Z,62.80
2018-03-31T21:48:47.701Z,62.80
2018-03-31T21:51:14.087Z,62.80
2018-03-31T21:53:40.441Z,62.90
2018-03-31T21:56:06.806Z,62.90
2018-03-31T21:58:33.181Z,63.30
2018-03-31T22:00:59.929Z,63.10
2018-03-31T22:03:26.729Z,63.20
2018-03-31T22:05:53.124Z,63.20
2018-03-31T22:08:19.495Z,63.30
2018-03-31T22:10:46.243Z,63.20
2018-03-31T22:13:13.016Z,63.30
2018-03-31T22:15:39.364Z,63.20
2018-03-31T22:18:05.733Z,63.20
2018-03-31T22:20:32.112Z,62.80
2018-03-31T22:22:58.471Z,63.00
2018-03-31T22:25:24.914Z,63.70
2018-03-31T22:27:51.278Z,64.20
2018-03-31T22:30:18.024Z,63.50
2018-03-31T22:32:44.817Z,63.20
2018-03-31T22:35:11.166Z,63.20
2018-03-31T22:37:37.557Z,63.50
2018-03-31T22:40:03.906Z,64.50
2018-03-31T22:42:30.657Z,65.60
2018-03-31T22:44:57.032Z,65.60
2018-03-31T22:47:23.840Z,65.70
2018-03-31T22:49:50.237Z,65.70
2018-03-31T22:52:16.645Z,66.10
2018-03-31T22:54:43.007Z,66.20
2018-03-31T22:57:09.761Z,65.80
2018-03-31T22:59:36.551Z,66.00
2018-03-31T23:02:02.901Z,66.00
2018-03-31T23:04:29.273Z,66.20
2018-03-31T23:06:55.643Z,66.30
2018-03-31T23:09:22.026Z,66.40
2018-03-31T23:11:48.392Z,66.70
2018-03-31T23:14:14.784Z,67.00
2018-03-31T23:16:41.125Z,66.70
2018-03-31T23:19:07.922Z,66.50
2018-03-31T23:21:34.293Z,66.50
2018-03-31T23:24:00.643Z,66.60
2018-03-31T23:26:27.009Z,67.00
2018-03-31T23:28:53.373Z,67.10
2018-03-31T23:31:20.153Z,67.20
2018-03-31T23:33:46.520Z,67.20
2018-03-31T23:36:12.886Z,67.10
2018-03-31T23:38:39.261Z,67.40
2018-03-31T23:41:06.008Z,68.10
2018-03-31T23:43:32.384Z,68.10
2018-03-31T23:45:58.744Z,68.10
2018-03-31T23:48:25.100Z,68.20
2018-03-31T23:50:51.562Z,68.60
2018-03-31T23:53:17.934Z,68.60
2018-03-31T23:55:44.327Z,68.50
2018-03-31T23:58:10.685Z,68.20
